createdAt,value
2023-04-12T00:00:29.098Z,15.25
2023-04-12T00:03:51.215Z,18.00
2023-04-12T00:06:54.725Z,17.00
2023-04-12T00:09:57.485Z,15.00
2023-04-12T00:12:59.844Z,18.50
2023-04-12T00:16:02.578Z,15.25
2023-04-12T00:19:06.712Z,18.00
2023-04-12T00:22:10.016Z,13.00
2023-04-12T00:25:12.504Z,14.75
2023-04-12T00:28:16.240Z,13.00
2023-04-12T00:31:19.339Z,13.00
2023-04-12T00:34:21.985Z,14.00
2023-04-12T00:37:24.457Z,14.50
2023-04-12T00:40:27.219Z,13.00
2023-04-12T00:43:31.937Z,13.75
2023-04-12T00:46:34.809Z,13.25
2023-04-12T00:49:39.582Z,13.50
2023-04-12T00:52:42.452Z,13.50
2023-04-12T00:55:45.904Z,13.50
2023-04-12T00:58:48.962Z,15.00
2023-04-12T01:01:52.907Z,14.75
2023-04-12T01:04:58.969Z,13.25
2023-04-12T01:08:15.139Z,15.75
2023-04-12T01:11:24.142Z,15.50
2023-04-12T01:15:05.193Z,16.25
2023-04-12T01:18:17.599Z,15.00
2023-04-12T01:21:42.812Z,17.75
2023-04-12T01:25:00.210Z,18.00
2023-04-12T01:28:05.779Z,18.00
2023-04-12T01:31:13.176Z,18.00
2023-04-12T01:34:16.328Z,15.50
2023-04-12T01:37:23.301Z,15.75
2023-04-12T01:40:28.322Z,18.25
2023-04-12T01:43:31.040Z,17.75
2023-04-12T01:46:34.742Z,16.00
2023-04-12T01:49:47.812Z,18.50
2023-04-12T01:52:59.726Z,17.25
2023-04-12T01:56:10.296Z,18.25
2023-04-12T01:59:16.630Z,22.75
2023-04-12T02:02:19.684Z,17.00
2023-04-12T02:05:22.557Z,19.00
2023-04-12T02:08:28.649Z,20.25
2023-04-12T02:11:31.101Z,18.00
2023-04-12T02:14:34.087Z,19.00
2023-04-12T02:17:37.575Z,18.75
2023-04-12T02:20:41.107Z,18.50
2023-04-12T02:23:45.083Z,18.50
2023-04-12T02:26:50.060Z,19.00
2023-04-12T02:29:53.084Z,15.75
2023-04-12T02:32:56.423Z,19.00
2023-04-12T02:36:03.044Z,18.50
2023-04-12T02:39:07.982Z,19.50
2023-04-12T02:42:11.260Z,18.00
2023-04-12T02:45:15.350Z,18.25
2023-04-12T02:48:18.848Z,18.00
2023-04-12T02:51:25.139Z,16.00
2023-04-12T02:54:27.579Z,15.25
2023-04-12T02:57:32.120Z,19.50
2023-04-12T03:00:34.875Z,17.75
2023-04-12T03:03:39.401Z,17.25
2023-04-12T03:07:00.592Z,17.00
2023-04-12T03:10:14.168Z,18.00
2023-04-12T03:13:22.023Z,14.00
2023-04-12T03:16:30.126Z,14.25
2023-04-12T03:19:43.380Z,15.00
2023-04-12T03:22:47.061Z,15.75
2023-04-12T03:25:49.500Z,13.00
2023-04-12T03:29:11.322Z,16.00
2023-04-12T03:32:16.721Z,15.75
2023-04-12T03:35:23.060Z,13.00
2023-04-12T03:38:27.211Z,18.00
2023-04-12T03:41:31.798Z,11.25
2023-04-12T03:44:37.765Z,15.25
2023-04-12T03:47:46.386Z,16.00
2023-04-12T03:50:54.746Z,15.00
2023-04-12T03:53:59.431Z,13.75
2023-04-12T03:57:02.367Z,14.00
2023-04-12T04:00:33.958Z,17.00
2023-04-12T04:03:42.607Z,11.50
2023-04-12T04:06:59.038Z,14.25
2023-04-12T04:10:03.850Z,14.50
2023-04-12T04:13:11.326Z,14.00
2023-04-12T04:16:14.158Z,14.00
2023-04-12T04:19:17.287Z,12.00
2023-04-12T04:22:23.098Z,14.00
2023-04-12T04:25:30.226Z,13.50
2023-04-12T04:28:38.771Z,15.00
2023-04-12T04:31:45.378Z,15.25
2023-04-12T04:34:49.013Z,14.50
2023-04-12T04:37:55.112Z,15.25
2023-04-12T04:40:58.912Z,14.25
2023-04-12T04:44:14.575Z,15.00
2023-04-12T04:47:25.497Z,14.00
2023-04-12T04:50:28.402Z,17.50
2023-04-12T04:53:31.507Z,15.00
2023-04-12T04:56:35.528Z,15.00
2023-04-12T04:59:38.304Z,12.50
2023-04-12T05:02:52.893Z,14.75
2023-04-12T05:06:03.647Z,14.25
2023-04-12T05:09:08.365Z,15.00
2023-04-12T05:12:16.676Z,14.75
2023-04-12T05:15:24.761Z,18.00
2023-04-12T05:18:27.818Z,13.50
2023-04-12T05:21:31.433Z,14.00
2023-04-12T05:24:33.893Z,14.00
2023-04-12T05:27:36.934Z,18.25
2023-04-12T05:30:42.019Z,14.75
2023-04-12T05:33:46.332Z,17.50
2023-04-12T05:36:48.800Z,15.00
2023-04-12T05:39:51.496Z,17.25
2023-04-12T05:42:54.757Z,16.75
2023-04-12T05:45:57.957Z,12.00
2023-04-12T05:49:00.450Z,12.00
2023-04-12T05:52:05.552Z,16.75
2023-04-12T05:55:09.566Z,16.00
2023-04-12T05:58:16.326Z,19.25
2023-04-12T06:01:20.108Z,20.75
2023-04-12T06:04:23.414Z,19.00
2023-04-12T06:07:28.138Z,19.50
2023-04-12T06:10:31.205Z,19.50
2023-04-12T06:13:35.576Z,23.00
2023-04-12T06:16:39.995Z,19.00
2023-04-12T06:19:44.185Z,21.00
2023-04-12T06:22:46.868Z,20.00
2023-04-12T06:25:53.589Z,19.00
2023-04-12T06:28:57.364Z,19.25
2023-04-12T06:32:00.139Z,20.00
2023-04-12T06:35:02.899Z,20.25
2023-04-12T06:38:05.270Z,20.75
2023-04-12T06:41:08.156Z,20.75
2023-04-12T06:44:10.728Z,16.00
2023-04-12T06:47:13.568Z,20.25
2023-04-12T06:50:16.282Z,20.50
2023-04-12T06:53:18.934Z,22.50
2023-04-12T06:56:21.314Z,21.00
2023-04-12T06:59:24.079Z,20.25
2023-04-12T07:02:26.584Z,19.00
2023-04-12T07:05:29.385Z,20.00
2023-04-12T07:08:35.978Z,21.00
2023-04-12T07:11:38.898Z,22.50
2023-04-12T07:14:42.399Z,20.75
2023-04-12T07:17:47.012Z,21.50
2023-04-12T07:20:53.249Z,17.25
2023-04-12T07:23:56.401Z,20.75
2023-04-12T07:27:00.233Z,20.00
2023-04-12T07:30:03.902Z,21.00
2023-04-12T07:33:18.500Z,20.25
2023-04-12T07:36:22.462Z,20.25
2023-04-12T07:39:25.398Z,21.75
2023-04-12T07:42:30.441Z,23.00
2023-04-12T07:45:32.853Z,22.25
2023-04-12T07:48:35.573Z,21.00
2023-04-12T07:51:38.948Z,21.25
2023-04-12T07:54:42.813Z,21.50
2023-04-12T07:57:46.296Z,23.25
2023-04-12T08:00:49.680Z,22.00
2023-04-12T08:03:52.604Z,24.00
2023-04-12T08:06:56.211Z,23.25
2023-04-12T08:09:58.596Z,18.75
2023-04-12T08:13:02.487Z,21.75
2023-04-12T08:16:05.425Z,20.50
2023-04-12T08:19:09.182Z,23.00
2023-04-12T08:22:13.508Z,22.00
2023-04-12T08:25:16.688Z,26.25
2023-04-12T08:28:19.293Z,21.50
2023-04-12T08:31:23.326Z,21.75
2023-04-12T08:34:25.964Z,21.25
2023-04-12T08:37:28.693Z,22.00
2023-04-12T08:40:31.243Z,21.00
2023-04-12T08:43:35.250Z,23.25
2023-04-12T08:46:38.690Z,20.00
2023-04-12T08:49:41.427Z,21.25
2023-04-12T08:52:44.456Z,23.25
2023-04-12T08:55:47.151Z,20.75
2023-04-12T08:58:49.972Z,23.00
2023-04-12T09:01:53.617Z,22.00
2023-04-12T09:04:56.746Z,21.00
2023-04-12T09:07:59.827Z,19.50
2023-04-12T09:11:02.239Z,21.25
2023-04-12T09:14:06.304Z,21.25
2023-04-12T09:17:28.450Z,21.75
2023-04-12T09:20:31.252Z,22.00
2023-04-12T09:23:33.741Z,20.50
2023-04-12T09:26:37.175Z,19.50
2023-04-12T09:29:39.536Z,20.50
2023-04-12T09:32:42.507Z,22.25
2023-04-12T09:35:45.141Z,20.75
2023-04-12T09:39:02.071Z,20.75
2023-04-12T09:42:21.389Z,22.50
2023-04-12T09:45:28.706Z,21.25
2023-04-12T09:48:31.191Z,22.00
2023-04-12T09:51:36.626Z,19.50
2023-04-12T09:54:43.870Z,19.75
2023-04-12T09:57:46.743Z,8.00
2023-04-12T10:00:49.490Z,18.25
2023-04-12T10:03:54.368Z,19.00
2023-04-12T10:07:01.476Z,21.75
2023-04-12T10:10:04.867Z,19.00
2023-04-12T10:13:10.435Z,19.00
2023-04-12T10:16:14.399Z,19.50
2023-04-12T10:19:17.817Z,21.75
2023-04-12T10:22:20.682Z,18.75
2023-04-12T10:25:26.026Z,21.50
2023-04-12T10:28:28.898Z,21.25
2023-04-12T10:31:32.604Z,19.00
2023-04-12T10:34:35.966Z,18.00
2023-04-12T10:38:08.207Z,19.00
2023-04-12T10:41:18.446Z,19.00
2023-04-12T10:44:25.263Z,19.75
2023-04-12T10:47:49.548Z,18.00
2023-04-12T10:51:14.180Z,16.75
2023-04-12T10:54:17.214Z,16.00
2023-04-12T10:57:42.613Z,16.25
2023-04-12T11:00:59.096Z,18.25
2023-04-12T11:04:21.435Z,16.50
2023-04-12T11:07:43.587Z,16.00
2023-04-12T11:11:09.301Z,18.00
2023-04-12T11:14:15.758Z,16.25
2023-04-12T11:17:22.230Z,15.00
2023-04-12T11:20:27.925Z,17.00
2023-04-12T11:23:32.276Z,16.50
2023-04-12T11:26:35.402Z,10.50
2023-04-12T11:29:38.018Z,16.50
2023-04-12T11:32:41.961Z,18.25
2023-04-12T11:35:44.474Z,16.00
2023-04-12T11:38:47.602Z,17.25
2023-04-12T11:41:50.492Z,14.00
2023-04-12T11:45:00.285Z,16.00
2023-04-12T11:48:09.347Z,16.00
2023-04-12T11:51:25.618Z,15.00
2023-04-12T11:54:31.905Z,17.00
2023-04-12T11:57:35.550Z,16.25
2023-04-12T12:00:38.271Z,16.00
2023-04-12T12:03:41.305Z,16.00
2023-04-12T12:06:44.368Z,15.00
2023-04-12T12:09:47.508Z,15.25
2023-04-12T12:12:50.050Z,13.25
2023-04-12T12:15:53.376Z,14.75
2023-04-12T12:18:58.152Z,13.75
2023-04-12T12:22:06.931Z,16.00
2023-04-12T12:25:09.376Z,15.75
2023-04-12T12:28:15.288Z,15.50
2023-04-12T12:31:21.690Z,12.00
2023-04-12T12:34:24.487Z,15.00
2023-04-12T12:37:28.002Z,14.00
2023-04-12T12:40:32.963Z,14.00
2023-04-12T12:43:35.553Z,15.00
2023-04-12T12:49:43.631Z,14.25
2023-04-12T12:52:47.257Z,14.50
2023-04-12T12:55:50.283Z,13.00
2023-04-12T12:58:53.091Z,14.25
2023-04-12T13:01:55.598Z,15.00
2023-04-12T13:04:59.100Z,13.50
2023-04-12T13:08:01.725Z,14.00
2023-04-12T13:11:04.581Z,12.00
2023-04-12T13:14:07.086Z,13.00
2023-04-12T13:17:09.817Z,15.00
2023-04-12T13:20:12.259Z,13.00
2023-04-12T13:23:15.164Z,13.25
2023-04-12T13:26:17.735Z,14.00
2023-04-12T13:29:21.442Z,13.00
2023-04-12T13:32:23.921Z,12.25
2023-04-12T13:35:26.808Z,11.00
2023-04-12T13:38:29.131Z,12.25
2023-04-12T13:41:33.177Z,14.75
2023-04-12T13:44:35.928Z,13.25
2023-04-12T13:47:39.206Z,12.25
2023-04-12T13:50:41.669Z,15.00
2023-04-12T13:53:45.133Z,12.50
2023-04-12T13:56:48.250Z,13.00
2023-04-12T13:59:52.233Z,14.00
2023-04-12T14:02:56.883Z,12.00
2023-04-12T14:06:01.396Z,13.25
2023-04-12T14:09:05.920Z,14.00
2023-04-12T14:12:08.800Z,14.50
2023-04-12T14:15:11.390Z,13.75
2023-04-12T14:18:14.207Z,11.25
2023-04-12T14:21:17.055Z,13.75
2023-04-12T14:24:21.088Z,11.25
2023-04-12T14:27:23.532Z,13.75
2023-04-12T14:30:27.306Z,13.50
2023-04-12T14:33:30.017Z,12.00
2023-04-12T14:36:33.645Z,13.25
2023-04-12T14:39:36.237Z,13.75
2023-04-12T14:42:40.137Z,14.00
2023-04-12T14:45:42.516Z,14.00
2023-04-12T14:48:45.220Z,13.50
2023-04-12T14:51:47.681Z,15.00
2023-04-12T14:54:50.433Z,14.25
2023-04-12T14:57:53.014Z,13.25
2023-04-12T15:01:00.507Z,13.50
2023-04-12T15:04:04.401Z,13.00
2023-04-12T15:07:07.860Z,17.50
2023-04-12T15:10:11.028Z,17.00
2023-04-12T15:13:13.815Z,16.25
2023-04-12T15:16:16.451Z,13.50
2023-04-12T15:19:22.908Z,17.75
2023-04-12T15:22:26.714Z,17.00
2023-04-12T15:25:31.038Z,14.00
2023-04-12T15:28:33.761Z,16.00
2023-04-12T15:31:36.608Z,16.75
2023-04-12T15:34:39.118Z,14.75
2023-04-12T15:37:42.021Z,17.00
2023-04-12T15:40:44.951Z,13.50
2023-04-12T15:43:49.684Z,17.50
2023-04-12T15:47:07.430Z,15.75
2023-04-12T15:50:13.724Z,17.50
2023-04-12T15:53:19.235Z,17.50
2023-04-12T15:56:25.844Z,17.50
2023-04-12T15:59:30.033Z,17.00
2023-04-12T16:02:34.102Z,18.50
2023-04-12T16:05:37.114Z,19.00
2023-04-12T16:08:40.184Z,7.50
2023-04-12T16:11:44.033Z,16.75
2023-04-12T16:14:47.080Z,16.00
2023-04-12T16:17:53.654Z,18.00
2023-04-12T16:20:57.073Z,17.25
2023-04-12T16:23:59.906Z,16.25
2023-04-12T16:27:02.981Z,16.25
2023-04-12T16:30:06.268Z,16.00
2023-04-12T16:33:10.169Z,17.00
2023-04-12T16:36:14.021Z,17.00
2023-04-12T16:39:37.047Z,17.50
2023-04-12T16:42:55.608Z,16.25
2023-04-12T16:46:07.613Z,15.25
2023-04-12T16:49:13.560Z,16.00
2023-04-12T16:52:17.145Z,16.00
2023-04-12T16:55:20.453Z,16.00
2023-04-12T16:58:26.603Z,14.25
2023-04-12T17:01:30.892Z,15.25
2023-04-12T17:04:35.509Z,14.75
2023-04-12T17:07:39.633Z,14.75
2023-04-12T17:10:45.607Z,16.00
2023-04-12T17:13:50.666Z,17.00
2023-04-12T17:16:53.602Z,15.50
2023-04-12T17:19:57.136Z,18.50
2023-04-12T17:23:00.822Z,19.00
2023-04-12T17:26:07.767Z,15.00
2023-04-12T17:29:11.933Z,22.25
2023-04-12T17:32:17.531Z,16.75
2023-04-12T17:35:29.740Z,20.00
2023-04-12T17:38:35.080Z,15.75
2023-04-12T17:41:38.879Z,17.00
2023-04-12T17:44:42.573Z,17.50
2023-04-12T17:47:48.329Z,19.00
2023-04-12T17:50:53.700Z,18.75
2023-04-12T17:53:59.659Z,18.00
2023-04-12T17:57:04.661Z,19.75
2023-04-12T18:00:14.896Z,20.25
2023-04-12T18:03:20.485Z,18.50
2023-04-12T18:06:26.494Z,18.00
2023-04-12T18:09:30.743Z,18.50
2023-04-12T18:12:34.382Z,18.50
2023-04-12T18:15:40.603Z,16.75
2023-04-12T18:18:43.600Z,18.75
2023-04-12T18:21:52.862Z,19.75
2023-04-12T18:24:56.216Z,20.75
2023-04-12T18:28:00.670Z,17.75
2023-04-12T18:31:05.196Z,18.25
2023-04-12T18:34:11.138Z,21.25
2023-04-12T18:37:13.682Z,21.00
2023-04-12T18:40:22.382Z,17.75
2023-04-12T18:43:26.541Z,20.50
2023-04-12T18:46:31.984Z,19.75
2023-04-12T18:49:35.731Z,21.25
2023-04-12T18:52:39.610Z,25.00
2023-04-12T18:55:48.404Z,24.75
2023-04-12T18:58:57.885Z,22.50
2023-04-12T19:02:02.565Z,21.00
2023-04-12T19:05:09.607Z,24.75
2023-04-12T19:08:15.728Z,25.00
2023-04-12T19:11:20.023Z,25.00
2023-04-12T19:14:23.619Z,25.00
2023-04-12T19:17:31.360Z,27.00
2023-04-12T19:20:36.350Z,28.50
2023-04-12T19:23:44.664Z,24.25
2023-04-12T19:26:53.887Z,25.00
2023-04-12T19:30:01.633Z,25.00
2023-04-12T19:33:05.325Z,25.50
2023-04-12T19:36:10.085Z,25.25
2023-04-12T19:39:14.648Z,26.25
2023-04-12T19:42:19.209Z,25.00
2023-04-12T19:45:23.344Z,26.25
2023-04-12T19:48:27.803Z,27.75
2023-04-12T19:51:32.006Z,25.00
2023-04-12T19:54:36.615Z,24.00
2023-04-12T19:57:41.713Z,24.25
2023-04-12T20:00:46.118Z,22.75
2023-04-12T20:03:50.334Z,24.00
2023-04-12T20:06:54.989Z,22.25
2023-04-12T20:10:02.299Z,22.25
2023-04-12T20:13:11.269Z,23.25
2023-04-12T20:16:14.654Z,22.25
2023-04-12T20:19:23.128Z,25.75
2023-04-12T20:22:28.265Z,23.00
2023-04-12T20:25:40.952Z,22.75
2023-04-12T20:28:51.183Z,26.00
2023-04-12T20:31:57.264Z,26.00
2023-04-12T20:35:02.167Z,26.00
2023-04-12T20:38:06.240Z,24.00
2023-04-12T20:41:11.450Z,22.33
2023-04-12T20:44:15.004Z,22.00
2023-04-12T20:47:18.751Z,23.50
2023-04-12T20:50:22.800Z,23.25
2023-04-12T20:53:25.872Z,22.00
2023-04-12T20:56:29.861Z,23.00
2023-04-12T20:59:34.688Z,21.50
2023-04-12T21:02:39.472Z,25.00
2023-04-12T21:05:42.225Z,23.67
2023-04-12T21:08:47.538Z,21.25
2023-04-12T21:11:51.248Z,22.75
2023-04-12T21:14:54.307Z,22.33
2023-04-12T21:17:57.117Z,24.00
2023-04-12T21:21:00.712Z,22.00
2023-04-12T21:24:04.094Z,22.00
2023-04-12T21:27:10.070Z,19.75
2023-04-12T21:30:13.795Z,22.00
2023-04-12T21:33:24.822Z,25.67
2023-04-12T21:36:28.898Z,22.00
2023-04-12T21:39:32.592Z,24.00
2023-04-12T21:42:37.636Z,22.50
2023-04-12T21:45:40.575Z,23.00
2023-04-12T21:48:43.490Z,20.00
2023-04-12T21:51:47.317Z,25.33
2023-04-12T21:54:49.907Z,25.00
2023-04-12T21:57:53.287Z,23.33
2023-04-12T22:00:58.411Z,25.33
2023-04-12T22:04:01.566Z,24.00
2023-04-12T22:07:04.416Z,23.33
2023-04-12T22:10:09.653Z,27.00
2023-04-12T22:13:12.265Z,31.00
2023-04-12T22:16:16.133Z,29.33
2023-04-12T22:19:19.254Z,32.00
2023-04-12T22:22:22.634Z,32.00
2023-04-12T22:25:25.231Z,27.00
2023-04-12T22:28:28.106Z,32.00
2023-04-12T22:31:30.699Z,30.00
2023-04-12T22:34:34.184Z,26.67
2023-04-12T22:37:41.624Z,27.33
2023-04-12T22:40:44.587Z,29.33
2023-04-12T22:43:48.059Z,27.00
2023-04-12T22:46:54.861Z,28.00
2023-04-12T22:50:01.534Z,27.33
2023-04-12T22:53:04.863Z,30.00
2023-04-12T22:56:11.568Z,27.33
2023-04-12T22:59:15.645Z,27.33
2023-04-12T23:02:18.428Z,21.67
2023-04-12T23:05:21.614Z,23.00
2023-04-12T23:08:25.818Z,27.33
2023-04-12T23:11:29.242Z,29.67
2023-04-12T23:14:31.789Z,27.00
2023-04-12T23:17:34.597Z,27.33
2023-04-12T23:20:40.579Z,27.67
2023-04-12T23:23:43.480Z,29.00
2023-04-12T23:26:46.274Z,29.67
2023-04-12T23:29:50.336Z,30.33
2023-04-12T23:32:53.697Z,31.00
2023-04-12T23:35:56.741Z,29.00
2023-04-12T23:39:06.645Z,29.00
2023-04-12T23:42:09.919Z,28.00
2023-04-12T23:45:12.426Z,25.00
2023-04-12T23:48:16.839Z,30.33
2023-04-12T23:51:19.367Z,31.00
2023-04-12T23:54:22.515Z,28.00
2023-04-12T23:57:25.578Z,30.00
